createdAt,value
2022-12-18T00:01:51.570Z,101614.69
2022-12-18T00:11:52.885Z,101623.59
2022-12-18T00:21:54.172Z,101620.16
2022-12-18T00:31:55.903Z,101626.97
2022-12-18T00:42:16.063Z,101630.84
2022-12-18T00:52:17.319Z,101636.56
2022-12-18T01:02:18.737Z,101632.25
2022-12-18T01:12:20.177Z,101636.31
2022-12-18T01:22:21.443Z,101616.34
2022-12-18T01:32:23.002Z,101611.09
2022-12-18T01:42:24.264Z,101629.91
2022-12-18T01:52:25.547Z,101620.69
2022-12-18T02:02:26.889Z,101633.84
2022-12-18T02:12:28.208Z,101634.47
2022-12-18T02:22:29.622Z,101625.41
2022-12-18T02:32:30.871Z,101648.06
2022-12-18T02:42:32.376Z,101633.91
2022-12-18T02:52:33.646Z,101645.72
2022-12-18T03:02:35.045Z,101643.84
2022-12-18T03:12:36.453Z,101647.38
2022-12-18T03:22:37.973Z,101641.84
2022-12-18T03:32:39.254Z,101634.38
2022-12-18T03:42:40.524Z,101636.81
2022-12-18T03:52:41.797Z,101636.59
2022-12-18T04:02:43.185Z,101623.78
2022-12-18T04:12:44.509Z,101628.88
2022-12-18T04:22:45.842Z,101624.75
2022-12-18T04:32:52.053Z,101624.94
2022-12-18T04:42:53.764Z,101632.19
2022-12-18T04:52:55.116Z,101641.34
2022-12-18T05:02:56.484Z,101643.16
2022-12-18T05:13:01.383Z,101642.66
2022-12-18T05:23:02.860Z,101647.88
2022-12-18T05:33:04.144Z,101644.19
2022-12-18T05:43:05.433Z,101641.38
2022-12-18T05:53:06.725Z,101637.84
2022-12-18T06:03:08.146Z,101664.69
2022-12-18T06:13:09.565Z,101668.66
2022-12-18T06:23:11.021Z,101688.25
2022-12-18T06:33:12.304Z,101698.78
2022-12-18T06:43:13.566Z,101706.88
2022-12-18T06:53:14.849Z,101710.41
2022-12-18T07:03:16.107Z,101721.91
2022-12-18T07:13:17.360Z,101728.38
2022-12-18T07:23:18.689Z,101725.63
2022-12-18T07:33:19.951Z,101724.88
2022-12-18T07:43:21.201Z,101738.78
2022-12-18T07:53:22.556Z,101746.66
2022-12-18T08:03:23.903Z,101759.69
2022-12-18T08:13:25.198Z,101765.63
2022-12-18T08:23:28.731Z,101774.22
2022-12-18T08:33:30.276Z,101755.66
2022-12-18T08:43:50.368Z,101736.66
2022-12-18T08:53:51.676Z,101722.31
2022-12-18T09:03:52.987Z,101711.94
2022-12-18T09:13:54.859Z,101717.22
2022-12-18T09:23:56.180Z,101734.09
2022-12-18T09:33:57.725Z,101764.53
2022-12-18T09:43:59.000Z,101746.38
2022-12-18T09:54:00.265Z,101767.28
2022-12-18T10:04:01.723Z,101780.09
2022-12-18T10:14:03.043Z,101781.94
2022-12-18T10:24:04.306Z,101765.25
2022-12-18T10:34:05.553Z,101766.75
2022-12-18T10:44:06.814Z,101757.66
2022-12-18T10:54:08.055Z,101751.06
2022-12-18T11:04:09.600Z,101759.94
2022-12-18T11:14:11.408Z,101764.25
2022-12-18T11:24:12.663Z,101749.09
2022-12-18T11:34:30.479Z,101731.22
2022-12-18T11:44:32.009Z,101729.22
2022-12-18T11:54:33.288Z,101717.06
2022-12-18T12:04:34.605Z,101699.94
2022-12-18T12:14:36.265Z,101698.38
2022-12-18T12:24:37.554Z,101704.34
2022-12-18T12:34:38.835Z,101703.13
2022-12-18T12:44:40.118Z,101698.09
2022-12-18T12:54:41.390Z,101678.56
2022-12-18T13:04:42.801Z,101662.78
2022-12-18T13:14:44.198Z,101645.44
2022-12-18T13:24:45.444Z,101638.81
2022-12-18T13:34:46.878Z,101636.06
2022-12-18T13:44:48.186Z,101624.50
2022-12-18T13:54:49.492Z,101622.09
2022-12-18T14:04:51.975Z,101627.97
2022-12-18T14:14:55.325Z,101608.53
2022-12-18T14:24:56.712Z,101614.97
2022-12-18T14:34:58.099Z,101605.19
2022-12-18T14:45:13.372Z,101605.69
2022-12-18T14:55:15.523Z,101594.47
2022-12-18T15:05:17.839Z,101589.53
2022-12-18T15:15:19.098Z,101591.50
2022-12-18T15:25:20.388Z,101596.88
2022-12-18T15:35:21.664Z,101598.44
2022-12-18T15:45:22.896Z,101592.72
2022-12-18T15:55:44.017Z,101587.25
2022-12-18T16:05:45.296Z,101584.03
2022-12-18T16:15:46.602Z,101591.13
2022-12-18T16:25:47.965Z,101574.03
2022-12-18T16:35:49.215Z,101564.22
2022-12-18T16:45:50.551Z,101563.28
2022-12-18T16:55:53.019Z,101561.28
2022-12-18T17:05:54.310Z,101556.88
2022-12-18T17:15:55.622Z,101554.53
2022-12-18T17:25:57.036Z,101549.53
2022-12-18T17:35:58.282Z,101547.88
2022-12-18T17:45:59.519Z,101550.59
2022-12-18T17:56:01.579Z,101540.13
2022-12-18T18:06:03.060Z,101536.59
2022-12-18T18:16:04.407Z,101552.75
2022-12-18T18:26:05.729Z,101551.97
2022-12-18T18:36:07.228Z,101541.41
2022-12-18T18:46:08.755Z,101513.47
2022-12-18T19:06:31.418Z,101488.34
2022-12-18T19:16:33.665Z,101497.97
2022-12-18T19:26:35.235Z,101484.91
2022-12-18T19:36:36.542Z,101488.22
2022-12-18T19:46:41.443Z,101475.66
2022-12-18T19:56:43.385Z,101487.19
2022-12-18T20:06:44.697Z,101476.34
2022-12-18T20:16:45.977Z,101492.75
2022-12-18T20:26:47.641Z,101470.06
2022-12-18T20:36:48.918Z,101467.50
2022-12-18T20:46:50.377Z,101463.63
2022-12-18T20:56:51.618Z,101461.38
2022-12-18T21:06:57.990Z,101444.84
2022-12-18T21:17:03.633Z,101443.16
2022-12-18T21:27:04.984Z,101448.09
2022-12-18T21:37:06.578Z,101425.28
2022-12-18T21:47:22.933Z,101452.03
2022-12-18T21:57:24.671Z,101444.34
2022-12-18T22:07:26.623Z,101455.19
2022-12-18T22:17:27.914Z,101448.88
2022-12-18T22:27:29.379Z,101476.78
2022-12-18T22:37:30.656Z,101460.28
2022-12-18T22:47:31.888Z,101460.25
2022-12-18T22:57:33.150Z,101454.72
2022-12-18T23:07:35.963Z,101459.84
2022-12-18T23:17:37.234Z,101452.81
2022-12-18T23:27:38.498Z,101444.59
2022-12-18T23:37:58.616Z,101444.88
2022-12-18T23:48:00.332Z,101425.28
2022-12-18T23:58:01.621Z,101415.13
